^^

..:: Storico WU ::..




Lo storico viene creato da WUnderground con i dati che la stazione Meteomincio invia al loro server. L' aggiornamento viene fatto ogni 5 minuti circa, tuttavia possono esserci intervalli pi¨ ampi a causa di errori, interruzioni di servizio o problemi nell' invio tramite FTP.


Storico stazione MeteoMincio
Giorno Sommario per Giugno 06, 2022 Unità:  Metrico    Inglese   Entrambi
Giorno Settimana Mese Anno
  Max: Min: Media:
Temperatura: 30.7 °C 17.8 °C 25 °C
Dew Point: 21.2 °C 14.4 °C 17.9 °C
Umidità: 81.5% 52.2% 65%
Velocità vento: 11.4km/h 1.5km/h 6.1km/h
Raffica: 22.5km/h - -
Direzione- - SSE
Pressione: 1015.1 hPa 1011.5 hPa -
Precipitazioni: 0.0 mm    
 
 
Tabulato Dati per Giugno 06, 2022
Ora Temperatura Dew Point Pressione Direzione Velocità vento Raffica Umidità Intensità pioggia (oraria) Info solare Situazione
00:04 20.8 °C 16.3 °C 1013.4 hPa West 5.1 km/h 8 km/h 75.6% 0.0 mm 0 W/m2
00:09 20.5 °C 16.4 °C 1013.5 hPa West 4.9 km/h 8 km/h 77% 0.0 mm 0 W/m2
00:14 20.3 °C 16.3 °C 1013.5 hPa West 5.8 km/h 8 km/h 78% 0.0 mm 0 W/m2
00:19 20.2 °C 16.3 °C 1013.5 hPa West 6.2 km/h 8 km/h 78% 0.0 mm 0 W/m2
00:24 20.3 °C 16.4 °C 1013.5 hPa WNW 6.4 km/h 9.7 km/h 78% 0.0 mm 0 W/m2
00:29 20.5 °C 16.4 °C 1013.5 hPa WNW 6.4 km/h 9.3 km/h 77.4% 0.0 mm 0 W/m2
00:34 20.5 °C 16.3 °C 1013.5 hPa WNW 6.6 km/h 11.3 km/h 77% 0.0 mm 0 W/m2
00:39 20.6 °C 16.4 °C 1013.5 hPa WNW 7.2 km/h 11.3 km/h 77% 0.0 mm 0 W/m2
00:44 20.6 °C 16.3 °C 1013.4 hPa WNW 6.5 km/h 11.3 km/h 76.5% 0.0 mm 0 W/m2
00:49 20.6 °C 16.3 °C 1013.5 hPa WNW 7 km/h 11.3 km/h 76.2% 0.0 mm 0 W/m2
00:54 20.5 °C 16.4 °C 1013.5 hPa WNW 6.6 km/h 11.3 km/h 77% 0.0 mm 0 W/m2
00:59 20.4 °C 16.3 °C 1013.6 hPa West 5.6 km/h 11.3 km/h 77.3% 0.0 mm 0 W/m2
01:04 20.2 °C 16.3 °C 1013.6 hPa WSW 4.8 km/h 8 km/h 78% 0.0 mm 0 W/m2
01:09 20.1 °C 16.2 °C 1013.6 hPa WSW 4.7 km/h 6.4 km/h 78% 0.0 mm 0 W/m2
01:14 20 °C 16.1 °C 1013.8 hPa WSW 5.1 km/h 6.4 km/h 78.7% 0.0 mm 0 W/m2
01:19 19.9 °C 16.1 °C 1013.8 hPa WSW 5.1 km/h 8 km/h 78.8% 0.0 mm 0 W/m2
01:24 19.8 °C 16.1 °C 1013.8 hPa WSW 5.1 km/h 8 km/h 79% 0.0 mm 0 W/m2
01:29 19.7 °C 16 °C 1013.8 hPa West 5 km/h 8 km/h 79% 0.0 mm 0 W/m2
01:34 19.7 °C 16 °C 1013.7 hPa West 5.1 km/h 8 km/h 79% 0.0 mm 0 W/m2
01:39 19.7 °C 16 °C 1013.7 hPa WNW 4.7 km/h 8 km/h 79% 0.0 mm 0 W/m2
01:44 19.9 °C 16 °C 1013.7 hPa WNW 3.7 km/h 8 km/h 78.6% 0.0 mm 0 W/m2
01:49 20 °C 16 °C 1013.6 hPa WNW 2.9 km/h 8 km/h 78% 0.0 mm 0 W/m2
01:54 20 °C 16 °C 1013.6 hPa WNW 3.5 km/h 6.4 km/h 77.6% 0.0 mm 0 W/m2
01:59 20.2 °C 15.9 °C 1013.5 hPa NW 5.4 km/h 8 km/h 76.7% 0.0 mm 0 W/m2
02:04 20.3 °C 15.9 °C 1013.5 hPa WNW 5.8 km/h 8 km/h 76.1% 0.0 mm 0 W/m2
02:09 20.2 °C 15.8 °C 1013.6 hPa WNW 4.7 km/h 8 km/h 76.2% 0.0 mm 0 W/m2
02:13 20 °C 15.7 °C 1013.6 hPa West 4.2 km/h 8 km/h 76% 0.0 mm 0 W/m2
02:18 19.9 °C 15.7 °C 1013.7 hPa West 4.3 km/h 6.4 km/h 76.5% 0.0 mm 0 W/m2
02:24 20 °C 15.6 °C 1013.7 hPa NW 4.4 km/h 6.4 km/h 76% 0.0 mm 0 W/m2
02:29 20.1 °C 15.6 °C 1013.6 hPa NW 5.3 km/h 8 km/h 75.3% 0.0 mm 0 W/m2
02:34 20.2 °C 15.5 °C 1013.6 hPa WNW 6.2 km/h 8 km/h 74.3% 0.0 mm 0 W/m2
02:39 20.3 °C 15.5 °C 1013.7 hPa NW 5.6 km/h 14.5 km/h 73.9% 0.0 mm 0 W/m2
02:44 20.3 °C 15.4 °C 1013.6 hPa NW 7.2 km/h 14.8 km/h 73% 0.0 mm 0 W/m2
02:49 20.4 °C 15.4 °C 1013.8 hPa NW 6.7 km/h 14.8 km/h 73% 0.0 mm 0 W/m2
02:54 20.4 °C 15.3 °C 1013.8 hPa NNW 7 km/h 14.5 km/h 72.4% 0.0 mm 0 W/m2
02:59 20.6 °C 15.1 °C 1013.8 hPa NNW 6.8 km/h 11.3 km/h 71.1% 0.0 mm 0 W/m2
03:04 20.7 °C 15 °C 1013.8 hPa NNW 8.5 km/h 14.8 km/h 70% 0.0 mm 0 W/m2
03:09 20.8 °C 15.1 °C 1013.7 hPa NNW 7.7 km/h 14.8 km/h 70% 0.0 mm 0 W/m2
03:14 20.8 °C 15 °C 1013.6 hPa NNW 8 km/h 14.8 km/h 69.2% 0.0 mm 0 W/m2
03:19 20.9 °C 14.9 °C 1013.6 hPa NW 6.4 km/h 14.8 km/h 68.7% 0.0 mm 0 W/m2
03:24 20.9 °C 14.8 °C 1013.6 hPa NNW 6 km/h 14.5 km/h 67.7% 0.0 mm 0 W/m2
03:29 21 °C 14.7 °C 1013.5 hPa NW 5.4 km/h 9.7 km/h 67% 0.0 mm 0 W/m2
03:34 21 °C 14.7 °C 1013.5 hPa NW 3.9 km/h 8 km/h 67% 0.0 mm 0 W/m2
03:39 21.1 °C 14.4 °C 1013.5 hPa WNW 3.5 km/h 8 km/h 66% 0.0 mm 0 W/m2
03:44 20.7 °C 14.6 °C 1013.5 hPa WNW 3.7 km/h 6.4 km/h 68.1% 0.0 mm 0 W/m2
03:49 20.5 °C 14.7 °C 1013.4 hPa WNW 4.3 km/h 8 km/h 69.6% 0.0 mm 0 W/m2
03:54 20.2 °C 14.6 °C 1013.4 hPa West 5.3 km/h 8 km/h 70.4% 0.0 mm 0 W/m2
03:58 19.8 °C 14.6 °C 1013.3 hPa West 5.5 km/h 8 km/h 72% 0.0 mm 0 W/m2
04:03 19.7 °C 14.7 °C 1013.4 hPa West 5.2 km/h 8 km/h 72.9% 0.0 mm 0 W/m2
04:08 19.6 °C 14.6 °C 1013.4 hPa West 4.8 km/h 8 km/h 73% 0.0 mm 0 W/m2
04:14 19.4 °C 14.7 °C 1013.4 hPa WNW 4.8 km/h 6.4 km/h 74% 0.0 mm 0 W/m2
04:18 19.5 °C 14.6 °C 1013.4 hPa WNW 5.7 km/h 8 km/h 73.5% 0.0 mm 0 W/m2
04:24 19.7 °C 14.6 °C 1013.5 hPa WNW 5.6 km/h 9.7 km/h 72.6% 0.0 mm 0 W/m2
04:28 19.8 °C 14.6 °C 1013.5 hPa NW 6.1 km/h 9.7 km/h 72% 0.0 mm 0 W/m2
04:33 19.7 °C 14.6 °C 1013.5 hPa NW 5.6 km/h 9.3 km/h 72.4% 0.0 mm 0 W/m2
04:39 19.6 °C 14.7 °C 1013.5 hPa WNW 5 km/h 9.7 km/h 73.3% 0.0 mm 0 W/m2
04:44 19.5 °C 14.7 °C 1013.5 hPa WNW 5.3 km/h 6.4 km/h 74% 0.0 mm 0 W/m2
04:48 19.4 °C 14.7 °C 1013.5 hPa WNW 4.4 km/h 6.4 km/h 74% 0.0 mm 0 W/m2
04:53 19.4 °C 14.6 °C 1013.5 hPa West 4.8 km/h 6.4 km/h 74% 0.0 mm 0 W/m2
04:58 19.3 °C 14.6 °C 1013.5 hPa WSW 5 km/h 8 km/h 74.4% 0.0 mm 0 W/m2
05:00 19.2 °C 14.6 °C 1013.5 hPa West 5.4 km/h 8 km/h 75% 0.0 mm 0 W/m2
05:09 18.8 °C 14.5 °C 1013.6 hPa West 6.3 km/h 8 km/h 76% 0.0 mm 0 W/m2
05:14 19.4 °C 14.5 °C 1013.6 hPa WNW 7.9 km/h 11.3 km/h 73.4% 0.0 mm 0 W/m2
05:19 19.6 °C 14.6 °C 1013.6 hPa WNW 8 km/h 11.3 km/h 73% 0.0 mm 0 W/m2
05:24 19.4 °C 14.5 °C 1013.6 hPa West 6.7 km/h 11.3 km/h 73.3% 0.0 mm 0 W/m2
05:28 19.1 °C 14.5 °C 1013.7 hPa WSW 5.4 km/h 11.3 km/h 74.7% 0.0 mm 0 W/m2
05:34 18.5 °C 14.4 °C 1013.8 hPa West 4.8 km/h 6.4 km/h 76.8% 0.0 mm 0 W/m2
05:39 18.4 °C 14.5 °C 1013.8 hPa WNW 5.2 km/h 8 km/h 77.8% 0.0 mm 5 W/m2
05:44 18.6 °C 14.5 °C 1013.8 hPa WNW 5.4 km/h 8 km/h 77% 0.0 mm 7 W/m2
05:49 18.6 °C 14.7 °C 1013.8 hPa WNW 4.6 km/h 8 km/h 77.7% 0.0 mm 11 W/m2
05:54 18.4 °C 14.6 °C 1013.8 hPa West 5.9 km/h 9.7 km/h 78.7% 0.0 mm 12 W/m2
05:59 18.2 °C 14.6 °C 1013.8 hPa WSW 7.2 km/h 9.7 km/h 79.8% 0.0 mm 14 W/m2
06:03 18.1 °C 14.6 °C 1013.8 hPa West 7.6 km/h 9.7 km/h 80% 0.0 mm 14 W/m2
06:09 17.8 °C 14.6 °C 1013.8 hPa West 7.4 km/h 9.7 km/h 81.4% 0.0 mm 19 W/m2
06:13 17.9 °C 14.7 °C 1013.7 hPa West 6.7 km/h 9.7 km/h 81.5% 0.0 mm 21 W/m2
06:18 18.2 °C 14.8 °C 1013.8 hPa WNW 6 km/h 9.7 km/h 80.5% 0.0 mm 23 W/m2
06:24 18.5 °C 14.9 °C 1013.8 hPa West 6.1 km/h 9.7 km/h 79.5% 0.0 mm 35 W/m2
06:29 18.7 °C 14.9 °C 1013.9 hPa WNW 6.5 km/h 9.7 km/h 78.4% 0.0 mm 44 W/m2
06:34 18.9 °C 15 °C 1013.8 hPa WNW 6.7 km/h 11.3 km/h 78.3% 0.0 mm 53 W/m2
06:39 19.1 °C 15.1 °C 1013.8 hPa WNW 7.5 km/h 11.3 km/h 77.7% 0.0 mm 62 W/m2
06:44 19.3 °C 15.2 °C 1013.8 hPa West 7.7 km/h 11.3 km/h 77% 0.0 mm 74 W/m2
06:49 19.4 °C 15.3 °C 1013.8 hPa WNW 6 km/h 9.3 km/h 77% 0.0 mm 84 W/m2
06:54 19.6 °C 15.4 °C 1013.9 hPa West 3.9 km/h 8 km/h 77% 0.0 mm 97 W/m2
06:59 19.8 °C 15.5 °C 1013.9 hPa WNW 5.6 km/h 9.7 km/h 76% 0.0 mm 113 W/m2
07:04 20.1 °C 15.5 °C 1013.9 hPa WNW 7.1 km/h 9.7 km/h 74.8% 0.0 mm 128 W/m2
07:09 20.3 °C 15.6 °C 1013.9 hPa WNW 6.9 km/h 9.7 km/h 74.4% 0.0 mm 144 W/m2
07:14 20.4 °C 15.7 °C 1013.8 hPa WNW 6.4 km/h 9.7 km/h 74% 0.0 mm 151 W/m2
07:19 20.6 °C 15.7 °C 1013.9 hPa WNW 6.1 km/h 9.7 km/h 73.4% 0.0 mm 169 W/m2
07:24 21 °C 15.8 °C 1013.9 hPa NNW 6 km/h 9.7 km/h 72.4% 0.0 mm 186 W/m2
07:29 21.2 °C 15.9 °C 1013.9 hPa NW 5.5 km/h 9.7 km/h 72% 0.0 mm 200 W/m2
07:34 21.4 °C 16 °C 1014.0 hPa NW 5.3 km/h 9.7 km/h 71.1% 0.0 mm 213 W/m2
07:39 21.7 °C 16 °C 1014.1 hPa NW 6.5 km/h 11.3 km/h 70% 0.0 mm 227 W/m2
07:44 21.8 °C 16.2 °C 1014.2 hPa NW 6.6 km/h 11.3 km/h 70.3% 0.0 mm 239 W/m2
07:49 22.1 °C 16.5 °C 1014.3 hPa NNW 5.9 km/h 11.3 km/h 70.7% 0.0 mm 251 W/m2
07:54 22.2 °C 16.4 °C 1014.4 hPa North 5.9 km/h 9.7 km/h 69.8% 0.0 mm 265 W/m2
07:59 22.5 °C 16.5 °C 1014.4 hPa NNW 4.2 km/h 9.7 km/h 69.3% 0.0 mm 276 W/m2
08:04 22.7 °C 16.9 °C 1014.4 hPa North 5.7 km/h 9.7 km/h 69.9% 0.0 mm 288 W/m2
08:09 22.9 °C 17.1 °C 1014.4 hPa North 6.3 km/h 11.3 km/h 69.8% 0.0 mm 304 W/m2
08:14 23 °C 17 °C 1014.4 hPa North 6.3 km/h 11.3 km/h 69.1% 0.0 mm 318 W/m2
08:19 23.2 °C 17.4 °C 1014.5 hPa NNE 5.6 km/h 11.3 km/h 69.7% 0.0 mm 330 W/m2
08:24 23.4 °C 17.6 °C 1014.5 hPa NNE 6.6 km/h 11.3 km/h 69.6% 0.0 mm 346 W/m2
08:29 23.6 °C 17.7 °C 1014.5 hPa NNE 8 km/h 11.3 km/h 69.7% 0.0 mm 359 W/m2
08:34 23.5 °C 17.7 °C 1014.6 hPa NNE 7.3 km/h 11.3 km/h 69.5% 0.0 mm 371 W/m2
08:39 23.8 °C 18.1 °C 1014.7 hPa NNE 6.4 km/h 11.3 km/h 70.5% 0.0 mm 383 W/m2
08:44 23.8 °C 18 °C 1014.7 hPa NNE 7.9 km/h 13 km/h 70% 0.0 mm 397 W/m2
08:49 23.8 °C 18.2 °C 1014.7 hPa NNE 8.7 km/h 13 km/h 70.8% 0.0 mm 413 W/m2
08:54 23.8 °C 17.8 °C 1014.8 hPa NNE 8.4 km/h 13 km/h 69.2% 0.0 mm 427 W/m2
08:59 23.8 °C 17.8 °C 1014.9 hPa NNE 7.2 km/h 12.9 km/h 69.1% 0.0 mm 445 W/m2
09:04 24.1 °C 18.2 °C 1014.9 hPa NNE 7.1 km/h 11.3 km/h 69.8% 0.0 mm 457 W/m2
09:09 24.1 °C 18.2 °C 1014.9 hPa NE 6.9 km/h 11.3 km/h 69.8% 0.0 mm 468 W/m2
09:14 24.1 °C 18 °C 1014.8 hPa NNE 7 km/h 9.7 km/h 68.6% 0.0 mm 483 W/m2
09:19 24.2 °C 17.7 °C 1014.8 hPa NE 7.3 km/h 11.3 km/h 67.2% 0.0 mm 499 W/m2
09:24 24.4 °C 18 °C 1014.8 hPa NNE 7.6 km/h 13 km/h 67.6% 0.0 mm 513 W/m2
09:29 24.5 °C 17.8 °C 1014.9 hPa NE 8.4 km/h 13 km/h 66.5% 0.0 mm 527 W/m2
09:34 24.8 °C 18 °C 1014.9 hPa NE 8.3 km/h 13 km/h 66.1% 0.0 mm 538 W/m2
09:39 24.7 °C 18 °C 1014.9 hPa NE 7.4 km/h 13 km/h 66.3% 0.0 mm 555 W/m2
09:44 24.7 °C 18.3 °C 1014.9 hPa NE 6 km/h 13 km/h 67.5% 0.0 mm 561 W/m2
09:45 24.8 °C 18.3 °C 1014.9 hPa ENE 4.4 km/h 13 km/h 67% 0.0 mm 571 W/m2
09:54 25.1 °C 18.2 °C 1015.0 hPa NE 4.5 km/h 12.9 km/h 65.5% 0.0 mm 596 W/m2
09:59 25.5 °C 18.2 °C 1015.0 hPa NNE 5.7 km/h 11.3 km/h 64.2% 0.0 mm 613 W/m2
10:04 25.6 °C 17.8 °C 1015.0 hPa ENE 7.4 km/h 11.3 km/h 62.1% 0.0 mm 613 W/m2
10:09 25.4 °C 17.8 °C 1015.0 hPa East 7.5 km/h 12.9 km/h 62.8% 0.0 mm 629 W/m2
10:14 25.6 °C 17.8 °C 1015.1 hPa ENE 7.3 km/h 13 km/h 62.4% 0.0 mm 598 W/m2
10:19 26 °C 18.1 °C 1015.1 hPa ENE 8.8 km/h 13 km/h 61.6% 0.0 mm 657 W/m2
10:24 26.2 °C 18.1 °C 1015.0 hPa ENE 9.1 km/h 13 km/h 61.1% 0.0 mm 664 W/m2
10:29 26.2 °C 18.2 °C 1015.0 hPa NNE 9.8 km/h 13 km/h 61.3% 0.0 mm 680 W/m2
10:34 26.3 °C 18 °C 1015.0 hPa East 7.1 km/h 13 km/h 60.3% 0.0 mm 698 W/m2
10:39 26 °C 18.2 °C 1015.0 hPa ENE 6.8 km/h 13 km/h 62% 0.0 mm 619 W/m2
10:44 26.3 °C 18.3 °C 1015.0 hPa NE 4.7 km/h 11.3 km/h 61.6% 0.0 mm 686 W/m2
10:49 26.4 °C 18 °C 1015.0 hPa ENE 5 km/h 11.3 km/h 60% 0.0 mm 696 W/m2
10:54 26.2 °C 17.9 °C 1015.0 hPa ENE 5.4 km/h 11.3 km/h 60.2% 0.0 mm 675 W/m2
10:59 26.4 °C 18.1 °C 1015.0 hPa NNE 5.8 km/h 12.9 km/h 60.4% 0.0 mm 691 W/m2
11:04 26.7 °C 18.6 °C 1015.0 hPa NNE 6.2 km/h 13 km/h 61% 0.0 mm 668 W/m2
11:09 26.8 °C 18.3 °C 1015.0 hPa NE 3.4 km/h 12.9 km/h 59.6% 0.0 mm 673 W/m2
11:14 26.7 °C 18.6 °C 1015.0 hPa ESE 3.3 km/h 11.3 km/h 61.3% 0.0 mm 754 W/m2
11:19 26.9 °C 18.5 °C 1015.0 hPa NE 5.4 km/h 13 km/h 60.3% 0.0 mm 763 W/m2
11:24 26.8 °C 18.2 °C 1015.0 hPa ESE 7.2 km/h 13 km/h 59.1% 0.0 mm 791 W/m2
11:29 27.1 °C 18.6 °C 1014.9 hPa NE 4.6 km/h 13 km/h 59.9% 0.0 mm 791 W/m2
11:34 27.7 °C 18.7 °C 1014.8 hPa NE 7.3 km/h 12.9 km/h 58% 0.0 mm 826 W/m2
11:39 27.4 °C 18.3 °C 1014.8 hPa East 7.4 km/h 12.9 km/h 57.5% 0.0 mm 819 W/m2
11:44 27.2 °C 18.6 °C 1014.8 hPa East 8 km/h 14.8 km/h 59.3% 0.0 mm 807 W/m2
11:49 27.5 °C 18.8 °C 1014.8 hPa NNE 7.6 km/h 14.8 km/h 59.2% 0.0 mm 719 W/m2
11:54 27.4 °C 18.3 °C 1014.7 hPa ENE 9.2 km/h 14.8 km/h 57.8% 0.0 mm 700 W/m2
11:59 27.4 °C 18.6 °C 1014.7 hPa East 8.4 km/h 16.1 km/h 58.6% 0.0 mm 684 W/m2
12:04 27.2 °C 18.4 °C 1014.6 hPa East 8.8 km/h 16.7 km/h 58.4% 0.0 mm 626 W/m2
12:09 27.2 °C 18.6 °C 1014.6 hPa East 8.2 km/h 16.1 km/h 59.6% 0.0 mm 677 W/m2
12:14 27.5 °C 18.8 °C 1014.6 hPa East 7.5 km/h 14.5 km/h 59% 0.0 mm 856 W/m2
12:19 27.9 °C 19.3 °C 1014.5 hPa ENE 8 km/h 13 km/h 59.5% 0.0 mm 891 W/m2
12:24 28.2 °C 19.5 °C 1014.5 hPa ENE 7.2 km/h 13 km/h 59.2% 0.0 mm 891 W/m2
12:29 28.2 °C 19.3 °C 1014.4 hPa East 8.4 km/h 18.5 km/h 58.6% 0.0 mm 854 W/m2
12:34 28 °C 19.1 °C 1014.4 hPa East 8.1 km/h 19.3 km/h 58.6% 0.0 mm 647 W/m2
12:39 28.1 °C 19.3 °C 1014.4 hPa ESE 6.7 km/h 19.3 km/h 59% 0.0 mm 761 W/m2
12:44 28.1 °C 18.7 °C 1014.4 hPa East 7.9 km/h 13 km/h 56.7% 0.0 mm 761 W/m2
12:49 28.3 °C 19.1 °C 1014.3 hPa East 9.1 km/h 14.5 km/h 57.4% 0.0 mm 721 W/m2
12:54 28.4 °C 19.2 °C 1014.3 hPa ESE 8.1 km/h 14.8 km/h 57.7% 0.0 mm 763 W/m2
12:59 28.4 °C 19.6 °C 1014.3 hPa ESE 8 km/h 14.5 km/h 58.6% 0.0 mm 861 W/m2
13:04 28.8 °C 19.6 °C 1014.3 hPa ESE 7.4 km/h 22.5 km/h 57.8% 0.0 mm 902 W/m2
13:09 29 °C 19.5 °C 1014.2 hPa East 8.8 km/h 22.5 km/h 56.5% 0.0 mm 902 W/m2
13:14 29.1 °C 19.6 °C 1014.2 hPa East 11.1 km/h 22.5 km/h 56.7% 0.0 mm 889 W/m2
13:19 29.6 °C 19.6 °C 1014.2 hPa ENE 10.5 km/h 22.5 km/h 55% 0.0 mm 868 W/m2
13:24 29.6 °C 19.4 °C 1014.2 hPa East 8.8 km/h 22.5 km/h 54.1% 0.0 mm 863 W/m2
13:29 29.4 °C 19.2 °C 1014.2 hPa East 8.6 km/h 16.1 km/h 54% 0.0 mm 865 W/m2
13:34 29.5 °C 19.2 °C 1014.2 hPa East 11.4 km/h 16.7 km/h 53.8% 0.0 mm 865 W/m2
13:39 29.7 °C 19.5 °C 1014.2 hPa East 10.7 km/h 18.5 km/h 54.2% 0.0 mm 865 W/m2
13:44 29.6 °C 19.5 °C 1014.1 hPa ENE 10.6 km/h 19.3 km/h 54.6% 0.0 mm 865 W/m2
13:49 29.8 °C 19.7 °C 1014.1 hPa East 10.9 km/h 19.3 km/h 54.6% 0.0 mm 875 W/m2
13:54 29.9 °C 19.9 °C 1014.0 hPa ENE 9.7 km/h 19.3 km/h 55% 0.0 mm 895 W/m2
13:59 30.3 °C 20.1 °C 1014.0 hPa ENE 8.8 km/h 17.7 km/h 54.6% 0.0 mm 900 W/m2
14:04 30 °C 19.8 °C 1014.0 hPa ESE 9.5 km/h 17.7 km/h 54.5% 0.0 mm 933 W/m2
14:09 29.5 °C 19.6 °C 1013.9 hPa ESE 7.3 km/h 14.5 km/h 55.4% 0.0 mm 243 W/m2
14:14 29.3 °C 19.8 °C 1013.9 hPa ENE 5.4 km/h 11.3 km/h 56.7% 0.0 mm 972 W/m2
14:19 29.5 °C 20 °C 1013.8 hPa East 6.8 km/h 16.7 km/h 56.6% 0.0 mm 972 W/m2
14:24 29.6 °C 20 °C 1013.8 hPa East 7.1 km/h 16.7 km/h 56.4% 0.0 mm 984 W/m2
14:29 30 °C 20.3 °C 1013.8 hPa SE 6.2 km/h 16.1 km/h 56.3% 0.0 mm 984 W/m2
14:34 29.7 °C 20 °C 1013.8 hPa East 6.8 km/h 13 km/h 56.1% 0.0 mm 285 W/m2
14:39 29.2 °C 20.2 °C 1013.8 hPa East 8.6 km/h 14.5 km/h 58.2% 0.0 mm 350 W/m2
14:44 29.2 °C 20.1 °C 1013.7 hPa ESE 10.7 km/h 14.8 km/h 58% 0.0 mm 350 W/m2
14:49 28.8 °C 20.1 °C 1013.6 hPa ESE 10.8 km/h 14.8 km/h 59.4% 0.0 mm 248 W/m2
14:54 29 °C 20.1 °C 1013.6 hPa ESE 8.5 km/h 14.8 km/h 58.8% 0.0 mm 898 W/m2
14:59 29.8 °C 20.2 °C 1013.5 hPa East 6.2 km/h 13 km/h 56.4% 0.0 mm 932 W/m2
15:04 30.7 °C 20.7 °C 1013.4 hPa ESE 4.5 km/h 13 km/h 55% 0.0 mm 944 W/m2
15:09 30.5 °C 20.3 °C 1013.4 hPa East 6.8 km/h 13 km/h 54.6% 0.0 mm 944 W/m2
15:14 29.9 °C 20.2 °C 1013.4 hPa East 6.2 km/h 14.5 km/h 56% 0.0 mm 229 W/m2
15:19 29.3 °C 20.5 °C 1013.3 hPa East 7.6 km/h 14.8 km/h 58.9% 0.0 mm 584 W/m2
15:24 29.4 °C 20.9 °C 1013.3 hPa ESE 6.8 km/h 14.8 km/h 60.1% 0.0 mm 954 W/m2
15:29 30.1 °C 21.2 °C 1013.2 hPa East 7.2 km/h 14.5 km/h 58.9% 0.0 mm 921 W/m2
15:34 30 °C 20.8 °C 1013.1 hPa East 9.7 km/h 14.8 km/h 57.9% 0.0 mm 601 W/m2
15:39 29.4 °C 20.6 °C 1013.1 hPa ESE 10 km/h 16.7 km/h 59% 0.0 mm 258 W/m2
15:44 29 °C 20.5 °C 1013.1 hPa ESE 10.3 km/h 16.7 km/h 60.2% 0.0 mm 202 W/m2
15:49 28.7 °C 20.7 °C 1013.1 hPa ESE 10.2 km/h 14.8 km/h 62.1% 0.0 mm 230 W/m2
15:54 28.7 °C 20.5 °C 1013.1 hPa ESE 8.3 km/h 14.8 km/h 61.4% 0.0 mm 230 W/m2
15:59 28.7 °C 20.6 °C 1013.0 hPa East 8.5 km/h 13 km/h 61.5% 0.0 mm 232 W/m2
16:04 28.9 °C 20.4 °C 1013.0 hPa ESE 8.1 km/h 13 km/h 60.2% 0.0 mm 239 W/m2
16:09 28.9 °C 20.5 °C 1012.9 hPa ESE 5.9 km/h 12.9 km/h 60.5% 0.0 mm 239 W/m2
16:14 28.8 °C 20.7 °C 1012.9 hPa ESE 4.6 km/h 8 km/h 61.6% 0.0 mm 246 W/m2
16:19 28.8 °C 20.8 °C 1012.9 hPa ESE 4.8 km/h 8 km/h 62.1% 0.0 mm 255 W/m2
16:24 28.7 °C 20.8 °C 1012.9 hPa ESE 4.3 km/h 9.7 km/h 62.2% 0.0 mm 264 W/m2
16:29 28.8 °C 20.8 °C 1012.9 hPa ESE 4.6 km/h 9.7 km/h 62% 0.0 mm 281 W/m2
16:33 28.8 °C 20.7 °C 1012.9 hPa ESE 4.2 km/h 9.7 km/h 61.6% 0.0 mm 311 W/m2
16:39 29 °C 21.1 °C 1012.9 hPa ESE 3.1 km/h 5.6 km/h 62.4% 0.0 mm 775 W/m2
16:44 29.5 °C 20.8 °C 1012.9 hPa ESE 3.5 km/h 8 km/h 59.6% 0.0 mm 802 W/m2
16:49 30.1 °C 20.8 °C 1012.8 hPa ESE 4.1 km/h 8 km/h 57.6% 0.0 mm 784 W/m2
16:54 30.1 °C 20.5 °C 1012.8 hPa SE 4.3 km/h 12.9 km/h 56.6% 0.0 mm 582 W/m2
16:59 29.8 °C 20.2 °C 1012.7 hPa SE 6.3 km/h 13 km/h 56.3% 0.0 mm 422 W/m2
17:04 29.8 °C 19.7 °C 1012.7 hPa SE 4.9 km/h 13 km/h 54.7% 0.0 mm 494 W/m2
17:09 30.1 °C 20 °C 1012.7 hPa SSE 4.5 km/h 8 km/h 54.9% 0.0 mm 547 W/m2
17:14 30.1 °C 20 °C 1012.7 hPa ESE 3.7 km/h 8 km/h 54.6% 0.0 mm 529 W/m2
17:19 30.1 °C 20.1 °C 1012.7 hPa SE 4 km/h 11.3 km/h 54.9% 0.0 mm 613 W/m2
17:24 30.4 °C 20.1 °C 1012.7 hPa ESE 4.7 km/h 11.3 km/h 54.2% 0.0 mm 594 W/m2
17:29 30.4 °C 20.1 °C 1012.6 hPa SE 6.1 km/h 11.3 km/h 54.3% 0.0 mm 649 W/m2
17:34 30.5 °C 19.6 °C 1012.4 hPa SE 6.2 km/h 12.9 km/h 52.2% 0.0 mm 643 W/m2
17:39 30.3 °C 19.7 °C 1012.4 hPa East 5.3 km/h 12.9 km/h 53.1% 0.0 mm 573 W/m2
17:44 30.4 °C 20.1 °C 1012.3 hPa East 6.5 km/h 14.5 km/h 54.2% 0.0 mm 570 W/m2
17:48 30.2 °C 20 °C 1012.3 hPa ESE 9.4 km/h 16.7 km/h 54.3% 0.0 mm 548 W/m2
17:54 30.1 °C 19.7 °C 1012.2 hPa East 10.7 km/h 16.7 km/h 53.5% 0.0 mm 512 W/m2
17:59 30.3 °C 19.5 °C 1012.2 hPa ESE 7.5 km/h 16.1 km/h 52.7% 0.0 mm 471 W/m2
18:04 30.2 °C 19.7 °C 1012.2 hPa East 7 km/h 14.8 km/h 53.2% 0.0 mm 445 W/m2
18:09 30.2 °C 19.7 °C 1012.2 hPa East 9 km/h 14.8 km/h 53.6% 0.0 mm 417 W/m2
18:14 30.2 °C 19.5 °C 1012.1 hPa ESE 8.7 km/h 14.5 km/h 53% 0.0 mm 401 W/m2
18:19 30.1 °C 19.6 °C 1012.0 hPa East 6.7 km/h 11.3 km/h 53.2% 0.0 mm 380 W/m2
18:24 30.2 °C 19.5 °C 1012.0 hPa East 8.4 km/h 13 km/h 52.8% 0.0 mm 362 W/m2
18:29 30.2 °C 19.3 °C 1011.9 hPa East 9.2 km/h 14.5 km/h 52.3% 0.0 mm 343 W/m2
18:34 30.1 °C 19.4 °C 1011.9 hPa East 9.9 km/h 14.8 km/h 52.8% 0.0 mm 323 W/m2
18:38 30.1 °C 19.5 °C 1011.8 hPa ESE 7.7 km/h 14.8 km/h 53% 0.0 mm 311 W/m2
18:44 30 °C 19.4 °C 1011.8 hPa ESE 7.8 km/h 14.8 km/h 53.2% 0.0 mm 295 W/m2
18:49 29.9 °C 19.3 °C 1011.8 hPa East 7.6 km/h 14.5 km/h 53.3% 0.0 mm 279 W/m2
18:54 29.8 °C 19.4 °C 1011.8 hPa ESE 8.4 km/h 12.9 km/h 53.7% 0.0 mm 267 W/m2
18:59 29.7 °C 19.4 °C 1011.8 hPa ESE 6.4 km/h 11.3 km/h 53.9% 0.0 mm 253 W/m2
19:04 29.6 °C 19.4 °C 1011.7 hPa ESE 4.4 km/h 11.3 km/h 54.1% 0.0 mm 239 W/m2
19:09 29.6 °C 19.6 °C 1011.7 hPa ESE 3.9 km/h 5.6 km/h 54.8% 0.0 mm 221 W/m2
19:14 29.6 °C 19.7 °C 1011.6 hPa East 4.3 km/h 9.7 km/h 55.4% 0.0 mm 204 W/m2
19:19 29.5 °C 19.7 °C 1011.6 hPa ESE 5.1 km/h 9.7 km/h 55.6% 0.0 mm 186 W/m2
19:24 29.5 °C 19.7 °C 1011.6 hPa ESE 5.8 km/h 14.5 km/h 56% 0.0 mm 186 W/m2
19:29 29.3 °C 19.8 °C 1011.5 hPa ESE 7.6 km/h 14.8 km/h 56.7% 0.0 mm 165 W/m2
19:34 29.1 °C 20 °C 1011.5 hPa ESE 7.4 km/h 14.8 km/h 57.8% 0.0 mm 146 W/m2
19:39 28.9 °C 19.8 °C 1011.5 hPa East 8.1 km/h 14.5 km/h 58% 0.0 mm 127 W/m2
19:44 28.7 °C 19.9 °C 1011.5 hPa East 6.6 km/h 11.3 km/h 59% 0.0 mm 51 W/m2
19:49 28.5 °C 19.7 °C 1011.5 hPa ESE 6 km/h 8 km/h 58.8% 0.0 mm 44 W/m2
19:54 28.4 °C 19.5 °C 1011.6 hPa ESE 4 km/h 8 km/h 58.4% 0.0 mm 32 W/m2
19:59 28.4 °C 19.5 °C 1011.6 hPa East 3.4 km/h 8 km/h 58.4% 0.0 mm 28 W/m2
20:04 28.3 °C 19.5 °C 1011.6 hPa East 4 km/h 5.6 km/h 59% 0.0 mm 25 W/m2
20:09 28.1 °C 19.4 °C 1011.6 hPa East 3.7 km/h 8 km/h 59% 0.0 mm 18 W/m2
20:14 27.9 °C 19.6 °C 1011.5 hPa East 3.9 km/h 5.6 km/h 60.5% 0.0 mm 18 W/m2
20:19 27.8 °C 19.7 °C 1011.6 hPa East 3.4 km/h 5.6 km/h 61.5% 0.0 mm 23 W/m2
20:24 27.7 °C 19.5 °C 1011.6 hPa East 2.7 km/h 5.6 km/h 61.2% 0.0 mm 26 W/m2
20:29 27.7 °C 19.3 °C 1011.7 hPa East 3.2 km/h 5.6 km/h 60.4% 0.0 mm 26 W/m2
20:34 27.7 °C 19.3 °C 1011.7 hPa ENE 2.5 km/h 5.6 km/h 60.3% 0.0 mm 23 W/m2
20:39 27.7 °C 19.5 °C 1011.7 hPa ENE 1.5 km/h 5.6 km/h 61% 0.0 mm 21 W/m2
20:44 27.6 °C 19.4 °C 1011.6 hPa ENE 3 km/h 5.6 km/h 61% 0.0 mm 19 W/m2
20:49 27.4 °C 19.4 °C 1011.6 hPa East 3 km/h 5.6 km/h 61.7% 0.0 mm 12 W/m2
20:54 27.3 °C 19.4 °C 1011.5 hPa East 3.5 km/h 8 km/h 62% 0.0 mm 9 W/m2
20:59 26.9 °C 19.2 °C 1011.5 hPa ESE 5.6 km/h 9.7 km/h 62.7% 0.0 mm 5 W/m2
21:04 26.8 °C 19.3 °C 1011.5 hPa East 6.2 km/h 11.3 km/h 63.7% 0.0 mm 0 W/m2
21:09 26.6 °C 19.3 °C 1011.5 hPa ESE 5.5 km/h 11.3 km/h 64.2% 0.0 mm 0 W/m2
21:14 26.4 °C 19.2 °C 1011.7 hPa ESE 2.8 km/h 9.7 km/h 64.7% 0.0 mm 0 W/m2
21:19 26.3 °C 19.2 °C 1011.8 hPa ESE 2.3 km/h 4.8 km/h 65% 0.0 mm 0 W/m2
21:24 26.2 °C 19.4 °C 1011.8 hPa ESE 2.6 km/h 3.7 km/h 65.9% 0.0 mm 0 W/m2
21:29 26.2 °C 19.2 °C 1011.8 hPa ESE 2.5 km/h 3.7 km/h 65.3% 0.0 mm 0 W/m2
21:34 26.3 °C 19.2 °C 1011.7 hPa ESE 2.8 km/h 5.6 km/h 65% 0.0 mm 0 W/m2
21:39 26.2 °C 19.2 °C 1011.6 hPa East 4.1 km/h 5.6 km/h 65.5% 0.0 mm 0 W/m2
21:44 26.1 °C 19.2 °C 1011.7 hPa East 3.7 km/h 5.6 km/h 65.9% 0.0 mm 0 W/m2
21:49 26 °C 18.9 °C 1011.8 hPa East 3 km/h 5.6 km/h 65.2% 0.0 mm 0 W/m2
21:52 25.9 °C 18.8 °C 1011.7 hPa East 3.2 km/h 5.6 km/h 65% 0.0 mm 0 W/m2
21:59 25.7 °C 18.7 °C 1012.0 hPa East 4.1 km/h 8 km/h 65% 0.0 mm 0 W/m2
22:04 25.6 °C 18.6 °C 1012.0 hPa ESE 5.1 km/h 8 km/h 65% 0.0 mm 0 W/m2
22:09 25.5 °C 18.5 °C 1011.9 hPa ESE 5.8 km/h 8 km/h 65.3% 0.0 mm 0 W/m2
22:14 25.3 °C 18.3 °C 1011.9 hPa ESE 4.1 km/h 8 km/h 65.3% 0.0 mm 0 W/m2
22:19 25.3 °C 18.3 °C 1012.0 hPa East 4.4 km/h 7.4 km/h 65.3% 0.0 mm 0 W/m2
22:24 25.2 °C 18.4 °C 1012.0 hPa East 3.9 km/h 5.6 km/h 66% 0.0 mm 0 W/m2
22:29 25.2 °C 18.2 °C 1012.0 hPa East 2.5 km/h 8 km/h 65% 0.0 mm 0 W/m2
22:34 25.1 °C 18.2 °C 1012.0 hPa East 4.2 km/h 8 km/h 65.7% 0.0 mm 0 W/m2
22:39 25 °C 18.2 °C 1012.0 hPa East 4.8 km/h 8 km/h 65.7% 0.0 mm 0 W/m2
22:44 25 °C 18.2 °C 1012.0 hPa East 4.3 km/h 8 km/h 66% 0.0 mm 0 W/m2
22:49 24.8 °C 18.1 °C 1012.0 hPa East 5.2 km/h 8 km/h 66.2% 0.0 mm 0 W/m2
22:54 24.7 °C 18.2 °C 1012.1 hPa East 6.1 km/h 9.7 km/h 67% 0.0 mm 0 W/m2
22:59 24.6 °C 18.1 °C 1012.1 hPa East 5.3 km/h 9.7 km/h 67.2% 0.0 mm 0 W/m2
23:04 24.4 °C 18.2 °C 1012.1 hPa East 5.8 km/h 9.7 km/h 68% 0.0 mm 0 W/m2
23:09 24.4 °C 18.1 °C 1012.2 hPa East 4.4 km/h 9.7 km/h 68% 0.0 mm 0 W/m2
23:14 24.3 °C 18.1 °C 1012.2 hPa East 3.5 km/h 9.7 km/h 68% 0.0 mm 0 W/m2
23:19 24.3 °C 18 °C 1012.2 hPa East 3.6 km/h 8 km/h 68% 0.0 mm 0 W/m2
23:24 24.2 °C 18 °C 1012.1 hPa East 4.5 km/h 8 km/h 68.3% 0.0 mm 0 W/m2
23:29 24 °C 17.9 °C 1012.1 hPa ENE 4.9 km/h 8 km/h 68.8% 0.0 mm 0 W/m2
23:34 23.9 °C 17.8 °C 1012.1 hPa ENE 3.9 km/h 8 km/h 69% 0.0 mm 0 W/m2
23:39 23.7 °C 17.7 °C 1012.1 hPa ENE 3.4 km/h 6.4 km/h 69% 0.0 mm 0 W/m2
23:44 23.6 °C 17.6 °C 1012.1 hPa NE 4.1 km/h 6.4 km/h 69% 0.0 mm 0 W/m2
23:49 23.5 °C 17.5 °C 1012.2 hPa ENE 3.6 km/h 5.6 km/h 69% 0.0 mm 0 W/m2
23:54 23.5 °C 17.5 °C 1012.2 hPa ENE 3.3 km/h 5.6 km/h 69% 0.0 mm 0 W/m2
23:59 23.4 °C 17.4 °C 1012.2 hPa ENE 3.6 km/h 5.6 km/h 69% 0.0 mm 0 W/m2
Stazione Meteorologica MeteoMincio Rivalta s/M (MN)
Con i complimenti di Weather Underground - 4 mb


METEO PILLOLE
Il luogo più nebbioso degli USA
Cape Disappointment - Washington
Per 2552 ore (106 giorni) all'anno in media è avvolto da nebbia fitta.

Do NOT follow this link or you will be banned from the site!